Map

Track Data

SID SEASON NUMBER BASIN SUBBASIN NAME ISO_TIME NATURE LAT LON WMO_WIND WMO_PRES WMO_AGENCY TRACK_TYPE DIST2LAND LANDFALL IFLAG USA_AGENCY USA_ATCF_ID USA_LAT USA_LON USA_RECORD USA_STATUS USA_WIND USA_PRES USA_SSHS USA_R34_NE USA_R34_SE USA_R34_SW USA_R34_NW USA_R50_NE USA_R50_SE USA_R50_SW USA_R50_NW USA_R64_NE USA_R64_SE USA_R64_SW USA_R64_NW USA_POCI USA_ROCI USA_RMW USA_EYE TOKYO_LAT TOKYO_LON TOKYO_GRADE TOKYO_WIND TOKYO_PRES TOKYO_R50_DIR TOKYO_R50_LONG TOKYO_R50_SHORT TOKYO_R30_DIR TOKYO_R30_LONG TOKYO_R30_SHORT TOKYO_LAND CMA_LAT CMA_LON CMA_CAT CMA_WIND CMA_PRES HKO_LAT HKO_LON HKO_CAT HKO_WIND HKO_PRES NEWDELHI_LAT NEWDELHI_LON NEWDELHI_GRADE NEWDELHI_WIND NEWDELHI_PRES NEWDELHI_CI NEWDELHI_DP NEWDELHI_POCI REUNION_LAT REUNION_LON REUNION_TYPE REUNION_WIND REUNION_PRES REUNION_TNUM REUNION_CI REUNION_RMW REUNION_R34_NE REUNION_R34_SE REUNION_R34_SW REUNION_R34_NW REUNION_R50_NE REUNION_R50_SE REUNION_R50_SW REUNION_R50_NW REUNION_R64_NE REUNION_R64_SE REUNION_R64_SW REUNION_R64_NW BOM_LAT BOM_LON BOM_TYPE BOM_WIND BOM_PRES BOM_TNUM BOM_CI BOM_RMW BOM_R34_NE BOM_R34_SE BOM_R34_SW BOM_R34_NW BOM_R50_NE BOM_R50_SE BOM_R50_SW BOM_R50_NW BOM_R64_NE BOM_R64_SE BOM_R64_SW BOM_R64_NW BOM_ROCI BOM_POCI BOM_EYE BOM_POS_METHOD BOM_PRES_METHOD NADI_LAT NADI_LON NADI_CAT NADI_WIND NADI_PRES WELLINGTON_LAT WELLINGTON_LON WELLINGTON_WIND WELLINGTON_PRES DS824_LAT DS824_LON DS824_STAGE DS824_WIND DS824_PRES TD9636_LAT TD9636_LON TD9636_STAGE TD9636_WIND TD9636_PRES TD9635_LAT TD9635_LON TD9635_WIND TD9635_PRES TD9635_ROCI NEUMANN_LAT NEUMANN_LON NEUMANN_CLASS NEUMANN_WIND NEUMANN_PRES MLC_LAT MLC_LON MLC_CLASS MLC_WIND MLC_PRES USA_GUST BOM_GUST BOM_GUST_PER REUNION_GUST REUNION_GUST_PER USA_SEAHGT USA_SEARAD_NE USA_SEARAD_SE USA_SEARAD_SW USA_SEARAD_NW STORM_SPEED STORM_DIR
1912239N18129 1912 38 WP MM NOT_NAMED 1912-08-25 16:00:00 NR 17.8000 128.900 main 649 649 __________O___ -1 17.8000 128.900 7 5 351
1912239N18129 1912 38 WP MM NOT_NAMED 1912-08-25 18:00:00 NR 17.9746 128.850 main 664 657 __________P___ -1 17.9746 128.850 7 6 345
1912239N18129 1912 38 WP MM NOT_NAMED 1912-08-25 21:00:00 NR 18.2523 128.775 main 680 675 __________P___ -1 18.2523 128.775 7 6 346
1912239N18129 1912 38 WP MM NOT_NAMED 1912-08-26 00:00:00 NR 18.5705 128.700 main 675 665 __________P___ -1 18.5705 128.700 7 7 349
1912239N18129 1912 38 WP MM NOT_NAMED 1912-08-26 03:00:00 NR 18.9537 128.625 main 666 666 __________P___ -1 18.9537 128.625 7 8 350
1912239N18129 1912 38 WP MM NOT_NAMED 1912-08-26 04:00:00 NR 19.1000 128.600 main 667 661 __________O___ -1 19.1000 128.600 7 10 351
1912239N18129 1912 38 WP MM NOT_NAMED 1912-08-26 06:00:00 NR 19.4230 128.549 main 661 663 __________P___ -1 19.4230 128.549 7 11 352
1912239N18129 1912 38 WP MM NOT_NAMED 1912-08-26 09:00:00 NR 19.9645 128.460 main 675 665 __________P___ -1 19.9645 128.460 7 11 350
1912239N18129 1912 38 WP MM NOT_NAMED 1912-08-26 12:00:00 NR 20.5412 128.340 main 671 675 __________P___ -1 20.5412 128.340 7 12 347
1912239N18129 1912 38 WP MM NOT_NAMED 1912-08-26 15:00:00 NR 21.1155 128.171 main 687 682 __________P___ -1 21.1155 128.171 7 12 344
1912239N18129 1912 38 WP MM NOT_NAMED 1912-08-26 16:00:00 NR 21.3000 128.100 main 687 683 __________O___ -1 21.3000 128.100 7 12 337
1912239N18129 1912 38 WP MM NOT_NAMED 1912-08-26 18:00:00 NR 21.6655 127.919 main 686 635 __________P___ -1 21.6655 127.919 7 12 333
1912239N18129 1912 38 WP MM NOT_NAMED 1912-08-26 21:00:00 NR 22.1955 127.597 main 635 575 __________P___ -1 22.1955 127.597 7 12 328
1912239N18129 1912 38 WP MM NOT_NAMED 1912-08-27 00:00:00 NR 22.6783 127.247 main 575 531 __________P___ -1 22.6783 127.247 7 11 324
1912239N18129 1912 38 WP MM NOT_NAMED 1912-08-27 03:00:00 NR 23.0857 126.905 main 531 518 __________P___ -1 23.0857 126.905 7 10 322
1912239N18129 1912 38 WP MM NOT_NAMED 1912-08-27 04:00:00 NR 23.2000 126.800 main 518 492 __________O___ -1 23.2000 126.800 3 8 319
1912239N18129 1912 38 WP MM NOT_NAMED 1912-08-27 06:00:00 NR 23.3849 126.626 main 492 467 __________P___ -1 23.3849 126.626 3 6 316
1912239N18129 1912 38 WP MM NOT_NAMED 1912-08-27 09:00:00 NR 23.5868 126.392 main 467 445 __________P___ -1 23.5868 126.392 3 5 310
1912239N18129 1912 38 WP MM NOT_NAMED 1912-08-27 12:00:00 NR 23.7314 126.177 main 445 420 __________P___ -1 23.7314 126.177 3 5 305
1912239N18129 1912 38 WP MM NOT_NAMED 1912-08-27 15:00:00 NR 23.8563 125.970 main 420 410 __________P___ -1 23.8563 125.970 3 5 304
1912239N18129 1912 38 WP MM NOT_NAMED 1912-08-27 16:00:00 NR 23.9000 125.900 main 410 399 __________O___ -1 23.9000 125.900 4 5 311
1912239N18129 1912 38 WP MM NOT_NAMED 1912-08-27 18:00:00 NR 24.0164 125.765 main 399 374 __________P___ -1 24.0164 125.765 4 5 314
1912239N18129 1912 38 WP MM NOT_NAMED 1912-08-27 21:00:00 NR 24.1911 125.564 main 374 339 __________P___ -1 24.1911 125.564 4 5 313
1912239N18129 1912 38 WP MM NOT_NAMED 1912-08-28 00:00:00 NR 24.3661 125.347 main 339 317 __________P___ -1 24.3661 125.347 4 6 309
1912239N18129 1912 38 WP MM NOT_NAMED 1912-08-28 03:00:00 NR 24.5415 125.095 main 317 305 __________P___ -1 24.5415 125.095 4 6 306
1912239N18129 1912 38 WP MM NOT_NAMED 1912-08-28 04:00:00 NR 24.6000 125.000 main 305 284 __________O___ -1 24.6000 125.000 4 7 303
1912239N18129 1912 38 WP MM NOT_NAMED 1912-08-28 06:00:00 NR 24.7220 124.787 main 284 242 __________P___ -1 24.7220 124.787 4 7 300
1912239N18129 1912 38 WP MM NOT_NAMED 1912-08-28 09:00:00 NR 24.9050 124.430 main 242 201 __________P___ -1 24.9050 124.430 4 8 298
1912239N18129 1912 38 WP MM NOT_NAMED 1912-08-28 12:00:00 NR 25.0825 124.041 main 201 162 __________P___ -1 25.0825 124.041 4 8 296
1912239N18129 1912 38 WP MM NOT_NAMED 1912-08-28 15:00:00 NR 25.2483 123.636 main 162 154 __________P___ -1 25.2483 123.636 4 8 294
1912239N18129 1912 38 WP MM NOT_NAMED 1912-08-28 16:00:00 NR 25.3000 123.500 main 154 138 __________O___ -1 25.3000 123.500 4 7 295
1912239N18129 1912 38 WP MM NOT_NAMED 1912-08-28 18:00:00 NR 25.4044 123.268 main 138 106 __________P___ -1 25.4044 123.268 4 7 295
1912239N18129 1912 38 WP MM NOT_NAMED 1912-08-28 21:00:00 NR 25.5489 122.914 main 106 90 __________P___ -1 25.5489 122.914 4 7 292
1912239N18129 1912 38 WP MM NOT_NAMED 1912-08-29 00:00:00 NR 25.6739 122.525 main 92 80 __________P___ -1 25.6739 122.525 4 8 286
1912239N18129 1912 38 WP MM NOT_NAMED 1912-08-29 03:00:00 NR 25.7735 122.071 main 83 73 __________P___ -1 25.7735 122.071 4 9 283
1912239N18129 1912 38 WP MM NOT_NAMED 1912-08-29 04:00:00 NR 25.8000 121.900 main 73 67 __________O___ -1 25.8000 121.900 4 10 279
1912239N18129 1912 38 WP MM NOT_NAMED 1912-08-29 06:00:00 NR 25.8556 121.513 main 78 78 __________P___ -1 25.8556 121.513 4 11 277
1912239N18129 1912 38 WP MM NOT_NAMED 1912-08-29 09:00:00 NR 25.9139 120.863 main 92 49 __________P___ -1 25.9139 120.863 4 12 274
1912239N18129 1912 38 WP MM NOT_NAMED 1912-08-29 12:00:00 NR 25.9363 120.160 main 49 0 __________P___ -1 25.9363 120.160 4 13 270
1912239N18129 1912 38 WP MM NOT_NAMED 1912-08-29 15:00:00 NR 25.9167 119.439 main 0 0 __________P___ -1 25.9167 119.439 4 13 268
1912239N18129 1912 38 WP MM NOT_NAMED 1912-08-29 16:00:00 NR 25.9000 119.200 main 0 0 __________O___ -1 25.9000 119.200 4 13 265
1912239N18129 1912 38 WP MM NOT_NAMED 1912-08-29 18:00:00 NR 25.8563 118.723 main 0 0 __________P___ -1 25.8563 118.723 4 13 262
1912239N18129 1912 38 WP MM NOT_NAMED 1912-08-29 21:00:00 NR 25.7532 118.008 main 0 0 __________P___ -1 25.7532 118.008 4 13 259
1912239N18129 1912 38 WP MM NOT_NAMED 1912-08-30 00:00:00 NR 25.6156 117.320 main 0 0 __________P___ -1 25.6156 117.320 4 12 256
1912239N18129 1912 38 WP MM NOT_NAMED 1912-08-30 03:00:00 NR 25.4559 116.691 main 0 0 __________P___ -1 25.4559 116.691 4 12 254
1912239N18129 1912 38 WP MM NOT_NAMED 1912-08-30 04:00:00 NR 25.4000 116.500 main 0 0 __________O___ -1 25.4000 116.500 4 10 251
1912239N18129 1912 38 WP MM NOT_NAMED 1912-08-30 06:00:00 NR 25.2961 116.163 main 0 0 __________P___ -1 25.2961 116.163 4 9 249
1912239N18129 1912 38 WP MM NOT_NAMED 1912-08-30 09:00:00 NR 25.1287 115.720 main 0 0 __________P___ -1 25.1287 115.720 4 8 246
1912239N18129 1912 38 WP MM NOT_NAMED 1912-08-30 12:00:00 NR 24.9503 115.321 main 0 0 __________P___ -1 24.9503 115.321 4 8 243
1912239N18129 1912 38 WP MM NOT_NAMED 1912-08-30 15:00:00 NR 24.7637 114.933 main 0 0 __________P___ -1 24.7637 114.933 4 8 242
1912239N18129 1912 38 WP MM NOT_NAMED 1912-08-30 16:00:00 NR 24.7000 114.800 main 0 0 __________O___ -1 24.7000 114.800 4 8 243
1912239N18129 1912 38 WP MM NOT_NAMED 1912-08-30 18:00:00 NR 24.5769 114.527 main 0 0 __________P___ -1 24.5769 114.527 4 8 243
1912239N18129 1912 38 WP MM NOT_NAMED 1912-08-30 21:00:00 NR 24.3863 114.112 main 0 0 __________P___ -1 24.3863 114.112 4 9 243
1912239N18129 1912 38 WP MM NOT_NAMED 1912-08-31 00:00:00 NR 24.1863 113.670 main 0 0 __________P___ -1 24.1863 113.670 4 9 244
1912239N18129 1912 38 WP MM NOT_NAMED 1912-08-31 03:00:00 NR 23.9740 113.178 main 0 0 __________P___ -1 23.9740 113.178 4 10 245
1912239N18129 1912 38 WP MM NOT_NAMED 1912-08-31 04:00:00 NR 23.9000 113.000 main 0 0 __________O___ -1 23.9000 113.000 7 11 245
1912239N18129 1912 38 WP MM NOT_NAMED 1912-08-31 06:00:00 NR 23.7370 112.612 main 0 0 __________P___ -1 23.7370 112.612 7 12 246
1912239N18129 1912 38 WP MM NOT_NAMED 1912-08-31 09:00:00 NR 23.4797 111.980 main 0 0 __________P___ -1 23.4797 111.980 7 13 247
1912239N18129 1912 38 WP MM NOT_NAMED 1912-08-31 12:00:00 NR 23.2206 111.309 main 0 0 __________P___ -1 23.2206 111.309 7 13 248
1912239N18129 1912 38 WP MM NOT_NAMED 1912-08-31 15:00:00 NR 22.9757 110.626 main 0 0 __________P___ -1 22.9757 110.626 7 13 249
1912239N18129 1912 38 WP MM NOT_NAMED 1912-08-31 16:00:00 NR 22.9000 110.400 main 0 0 __________O___ -1 22.9000 110.400 7 13 251
1912239N18129 1912 38 WP MM NOT_NAMED 1912-08-31 18:00:00 NR 22.7599 109.953 main 0 0 __________P___ -1 22.7599 109.953 7 13 252
1912239N18129 1912 38 WP MM NOT_NAMED 1912-08-31 21:00:00 NR 22.5736 109.296 main 0 0 __________P___ -1 22.5736 109.296 7 13 254
1912239N18129 1912 38 WP MM NOT_NAMED 1912-09-01 00:00:00 NR 22.4072 108.651 main 0 0 __________P___ -1 22.4072 108.651 7 12 255
1912239N18129 1912 38 WP MM NOT_NAMED 1912-09-01 03:00:00 NR 22.2513 108.012 main 0 0 __________P___ -1 22.2513 108.012 7 12 255
1912239N18129 1912 38 WP MM NOT_NAMED 1912-09-01 04:00:00 NR 22.2000 107.800 main 0 __________O___ -1 22.2000 107.800 7 12 256

Digital Typhoon Data and Search

About IBTrACS Database

This database is a web-friendly format of International Best Track Archive for Climate Stewardship (IBTrACS), a global best track data archive curated by NOAA dating back to 1842.

Updated: 2021-12-01